createdAt,value
2022-10-31T00:01:15.347Z,11.85
2022-10-31T00:03:48.930Z,11.82
2022-10-31T00:06:23.218Z,11.82
2022-10-31T00:08:59.563Z,11.81
2022-10-31T00:11:32.726Z,11.83
2022-10-31T00:14:05.885Z,11.81
2022-10-31T00:16:38.612Z,11.80
2022-10-31T00:19:11.597Z,11.79
2022-10-31T00:21:44.169Z,11.77
2022-10-31T00:24:16.988Z,11.77
2022-10-31T00:26:53.507Z,11.78
2022-10-31T00:29:27.878Z,11.78
2022-10-31T00:32:00.357Z,11.76
2022-10-31T00:34:33.159Z,11.73
2022-10-31T00:37:06.118Z,11.70
2022-10-31T00:39:39.166Z,11.68
2022-10-31T00:42:12.200Z,11.66
2022-10-31T00:44:44.716Z,11.65
2022-10-31T00:47:20.417Z,11.63
2022-10-31T00:49:53.127Z,11.58
2022-10-31T00:52:24.691Z,11.56
2022-10-31T00:54:58.807Z,11.49
2022-10-31T00:57:31.447Z,11.50
2022-10-31T01:00:04.361Z,11.47
2022-10-31T01:02:37.197Z,11.46
2022-10-31T01:05:10.573Z,11.42
2022-10-31T01:07:44.718Z,11.39
2022-10-31T01:10:15.507Z,11.35
2022-10-31T01:12:52.478Z,11.25
2022-10-31T01:15:28.276Z,11.26
2022-10-31T01:18:01.366Z,11.25
2022-10-31T01:20:37.677Z,11.24
2022-10-31T01:23:08.397Z,11.21
2022-10-31T01:25:41.206Z,11.15
2022-10-31T01:28:15.118Z,11.15
2022-10-31T01:30:53.297Z,11.12
2022-10-31T01:33:25.937Z,11.11
2022-10-31T01:36:03.137Z,11.09
2022-10-31T01:38:38.587Z,11.10
2022-10-31T01:41:14.178Z,11.08
2022-10-31T01:43:56.537Z,11.08
2022-10-31T01:46:32.808Z,11.06
2022-10-31T01:49:15.017Z,11.05
2022-10-31T01:51:55.457Z,11.04
2022-10-31T01:54:33.457Z,11.02
2022-10-31T01:57:09.818Z,11.00
2022-10-31T01:59:48.207Z,10.96
2022-10-31T02:02:22.240Z,10.94
2022-10-31T02:04:56.332Z,10.91
2022-10-31T02:07:36.178Z,10.85
2022-10-31T02:10:10.117Z,10.83
2022-10-31T02:12:48.477Z,10.82
2022-10-31T02:15:21.207Z,10.80
2022-10-31T02:17:54.720Z,10.77
2022-10-31T02:20:32.687Z,10.74
2022-10-31T02:23:32.196Z,10.72
2022-10-31T02:26:23.567Z,10.69
2022-10-31T02:29:18.637Z,10.70
2022-10-31T02:32:01.464Z,10.68
2022-10-31T02:34:41.777Z,10.70
2022-10-31T02:37:22.686Z,10.68
2022-10-31T02:40:02.094Z,10.70
2022-10-31T02:43:00.503Z,10.71
2022-10-31T02:45:41.869Z,10.70
2022-10-31T02:48:17.697Z,10.67
2022-10-31T02:50:57.568Z,10.65
2022-10-31T02:53:34.870Z,10.67
2022-10-31T02:56:14.001Z,10.65
2022-10-31T02:58:50.687Z,10.65
2022-10-31T03:01:53.535Z,10.64
2022-10-31T03:04:52.048Z,10.65
2022-10-31T03:07:33.929Z,10.63
2022-10-31T03:10:16.159Z,10.67
2022-10-31T03:13:00.113Z,10.70
2022-10-31T03:15:37.772Z,10.71
2022-10-31T03:18:15.918Z,10.73
2022-10-31T03:20:52.446Z,10.74
2022-10-31T03:23:28.285Z,10.73
2022-10-31T03:26:03.919Z,10.75
2022-10-31T03:28:44.512Z,10.76
2022-10-31T03:31:21.126Z,10.78
2022-10-31T03:33:56.857Z,10.78
2022-10-31T03:36:33.168Z,10.79
2022-10-31T03:39:09.139Z,10.79
2022-10-31T03:41:48.197Z,10.82
2022-10-31T03:44:24.087Z,10.83
2022-10-31T03:47:05.059Z,10.86
2022-10-31T03:49:40.592Z,10.87
2022-10-31T03:52:24.568Z,10.89
2022-10-31T03:55:01.918Z,10.91
2022-10-31T03:57:41.178Z,10.91
2022-10-31T04:00:19.974Z,10.90
2022-10-31T04:02:59.518Z,10.90
2022-10-31T04:05:34.937Z,10.96
2022-10-31T04:08:13.995Z,10.98
2022-10-31T04:10:51.190Z,10.98
2022-10-31T04:13:28.123Z,10.98
2022-10-31T04:16:15.981Z,10.97
2022-10-31T04:18:50.157Z,10.95
2022-10-31T04:21:29.208Z,10.97
2022-10-31T04:24:03.827Z,10.98
2022-10-31T04:26:37.337Z,11.00
2022-10-31T04:29:10.220Z,11.00
2022-10-31T04:31:44.430Z,11.01
2022-10-31T04:34:17.409Z,11.03
2022-10-31T04:36:49.926Z,11.05
2022-10-31T04:39:26.772Z,11.07
2022-10-31T04:42:35.487Z,11.06
2022-10-31T04:45:10.681Z,11.04
2022-10-31T04:47:43.777Z,11.03
2022-10-31T04:50:16.990Z,11.02
2022-10-31T04:52:51.377Z,11.01
2022-10-31T04:55:27.048Z,11.00
2022-10-31T04:58:25.838Z,10.98
2022-10-31T05:00:59.024Z,10.99
2022-10-31T05:03:32.687Z,10.98
2022-10-31T05:06:05.677Z,10.98
2022-10-31T05:08:38.557Z,10.98
2022-10-31T05:11:12.548Z,10.97
2022-10-31T05:13:45.511Z,10.96
2022-10-31T05:16:20.015Z,10.94
2022-10-31T05:19:11.991Z,10.90
2022-10-31T05:22:03.849Z,10.88
2022-10-31T05:24:38.373Z,10.88
2022-10-31T05:27:11.049Z,10.87
2022-10-31T05:29:44.079Z,10.86
2022-10-31T05:32:17.678Z,10.85
2022-10-31T05:35:12.199Z,10.84
2022-10-31T05:38:07.243Z,10.85
2022-10-31T05:40:40.319Z,10.87
2022-10-31T05:43:13.608Z,10.88
2022-10-31T05:45:49.328Z,10.89
2022-10-31T05:48:41.948Z,10.91
2022-10-31T05:51:33.367Z,10.92
2022-10-31T05:54:06.168Z,10.93
2022-10-31T05:56:38.897Z,10.93
2022-10-31T05:59:11.677Z,10.96
2022-10-31T06:01:45.342Z,10.96
2022-10-31T06:04:40.901Z,10.96
2022-10-31T06:07:14.507Z,10.98
2022-10-31T06:09:47.378Z,11.01
2022-10-31T06:12:21.497Z,11.05
2022-10-31T06:15:13.417Z,11.11
2022-10-31T06:17:44.275Z,11.18
2022-10-31T06:20:43.207Z,11.19
2022-10-31T06:23:17.107Z,11.26
2022-10-31T06:25:54.818Z,11.38
2022-10-31T06:28:27.598Z,11.54
2022-10-31T06:31:06.123Z,11.72
2022-10-31T06:33:45.541Z,11.87
2022-10-31T06:36:18.262Z,12.00
2022-10-31T06:38:57.316Z,12.14
2022-10-31T06:41:30.137Z,12.30
2022-10-31T06:44:06.423Z,12.45
2022-10-31T06:47:00.336Z,12.60
2022-10-31T06:49:39.448Z,12.75
2022-10-31T06:52:19.757Z,12.85
2022-10-31T06:54:52.448Z,12.97
2022-10-31T06:57:25.613Z,13.13
2022-10-31T06:59:58.545Z,13.30
2022-10-31T07:06:04.668Z,13.52
2022-10-31T07:08:38.368Z,13.61
2022-10-31T07:11:11.547Z,13.73
2022-10-31T07:13:45.132Z,13.86
2022-10-31T07:16:18.437Z,13.95
2022-10-31T07:18:53.969Z,14.02
2022-10-31T07:21:27.080Z,14.02
2022-10-31T07:23:59.867Z,14.14
2022-10-31T07:26:47.523Z,14.30
2022-10-31T07:29:20.415Z,14.46
2022-10-31T07:31:54.775Z,14.60
2022-10-31T07:34:31.197Z,14.69
2022-10-31T07:37:22.788Z,14.80
2022-10-31T07:39:55.476Z,14.91
2022-10-31T07:42:28.557Z,15.04
2022-10-31T07:45:01.147Z,15.13
2022-10-31T07:48:00.354Z,15.15
2022-10-31T07:50:54.780Z,15.17
2022-10-31T07:54:06.138Z,15.26
2022-10-31T07:56:38.778Z,15.37
2022-10-31T07:59:11.958Z,15.49
2022-10-31T08:01:45.055Z,15.61
2022-10-31T08:04:36.648Z,15.73
2022-10-31T08:07:27.908Z,15.86
2022-10-31T08:10:04.461Z,15.98
2022-10-31T08:12:37.507Z,16.10
2022-10-31T08:15:14.708Z,16.15
2022-10-31T08:17:50.727Z,16.27
2022-10-31T08:20:27.891Z,16.45
2022-10-31T08:23:08.868Z,16.55
2022-10-31T08:25:48.550Z,16.66
2022-10-31T08:28:21.316Z,16.79
2022-10-31T08:31:00.387Z,16.90
2022-10-31T08:33:47.768Z,17.05
2022-10-31T08:36:56.487Z,17.19
2022-10-31T08:39:39.720Z,17.33
2022-10-31T08:42:12.427Z,17.45
2022-10-31T08:44:45.127Z,17.53
2022-10-31T08:47:18.948Z,17.64
2022-10-31T08:49:51.910Z,17.76
2022-10-31T08:52:51.261Z,17.88
2022-10-31T08:55:22.247Z,18.00
2022-10-31T08:58:17.083Z,18.12
2022-10-31T09:00:58.748Z,18.19
2022-10-31T09:03:33.813Z,18.26
2022-10-31T09:06:10.229Z,18.37
2022-10-31T09:08:43.175Z,18.47
2022-10-31T09:11:17.202Z,18.55
2022-10-31T09:14:19.391Z,18.60
2022-10-31T09:17:16.098Z,18.68
2022-10-31T09:20:15.197Z,18.75
2022-10-31T09:22:48.378Z,18.88
2022-10-31T09:25:21.345Z,19.02
2022-10-31T09:28:04.194Z,19.13
2022-10-31T09:30:38.637Z,19.29
2022-10-31T09:33:13.018Z,19.39
2022-10-31T09:35:47.808Z,19.43
2022-10-31T09:38:22.087Z,19.53
2022-10-31T09:41:04.999Z,19.64
2022-10-31T09:43:47.907Z,19.73
2022-10-31T09:46:30.646Z,19.79
2022-10-31T09:49:27.483Z,19.79
2022-10-31T09:52:08.188Z,19.88
2022-10-31T09:54:45.471Z,19.92
2022-10-31T09:57:22.577Z,20.04
2022-10-31T09:59:55.603Z,20.14
2022-10-31T10:02:37.595Z,20.24
2022-10-31T10:05:15.538Z,20.37
2022-10-31T10:07:58.037Z,20.46
2022-10-31T10:10:56.687Z,20.55
2022-10-31T10:14:09.435Z,20.65
2022-10-31T10:17:05.248Z,20.75
2022-10-31T10:19:53.087Z,20.75
2022-10-31T10:22:33.509Z,20.91
2022-10-31T10:25:18.045Z,21.03
2022-10-31T10:28:06.422Z,21.11
2022-10-31T10:30:46.922Z,21.15
2022-10-31T10:33:25.576Z,21.24
2022-10-31T10:36:01.777Z,21.32
2022-10-31T10:38:40.987Z,21.39
2022-10-31T10:41:19.157Z,21.44
2022-10-31T10:43:55.817Z,21.46
2022-10-31T10:46:54.087Z,21.59
2022-10-31T10:49:36.039Z,21.57
2022-10-31T10:55:19.398Z,21.61
2022-10-31T10:58:01.775Z,21.71
2022-10-31T11:00:38.115Z,21.69
2022-10-31T11:03:14.208Z,21.74
2022-10-31T11:05:54.780Z,21.90
2022-10-31T11:08:31.852Z,21.86
2022-10-31T11:11:08.079Z,21.76
2022-10-31T11:13:43.919Z,21.77
2022-10-31T11:16:39.580Z,21.74
2022-10-31T11:19:19.989Z,21.84
2022-10-31T11:21:54.188Z,21.92
2022-10-31T11:24:29.107Z,21.80
2022-10-31T11:27:19.461Z,21.79
2022-10-31T11:29:54.580Z,21.92
2022-10-31T11:32:32.187Z,22.02
2022-10-31T11:35:12.606Z,21.89
2022-10-31T11:37:48.788Z,22.04
2022-10-31T11:40:24.158Z,22.09
2022-10-31T11:43:00.934Z,21.95
2022-10-31T11:45:38.340Z,21.91
2022-10-31T11:48:22.087Z,21.80
2022-10-31T11:50:58.177Z,21.89
2022-10-31T11:53:33.717Z,21.87
2022-10-31T11:56:15.726Z,21.68
2022-10-31T11:58:57.559Z,21.51
2022-10-31T12:01:31.994Z,21.71
2022-10-31T12:04:09.827Z,21.75
2022-10-31T12:06:44.910Z,21.81
2022-10-31T12:09:24.208Z,21.94
2022-10-31T12:12:32.127Z,22.07
2022-10-31T12:15:18.807Z,22.19
2022-10-31T12:20:48.528Z,22.01
2022-10-31T12:23:35.087Z,22.01
2022-10-31T12:26:18.336Z,22.10
2022-10-31T12:29:05.447Z,22.20
2022-10-31T12:31:57.167Z,22.21
2022-10-31T12:34:49.216Z,22.18
2022-10-31T12:37:34.846Z,22.11
2022-10-31T12:40:22.287Z,22.18
2022-10-31T12:43:08.847Z,22.18
2022-10-31T12:45:53.937Z,22.17
2022-10-31T12:48:55.506Z,22.09
2022-10-31T12:51:39.896Z,22.07
2022-10-31T12:54:28.817Z,22.06
2022-10-31T12:57:13.717Z,22.11
2022-10-31T12:59:50.967Z,22.08
2022-10-31T13:02:27.187Z,22.02
2022-10-31T13:05:04.217Z,22.04
2022-10-31T13:07:43.049Z,22.00
2022-10-31T13:10:23.848Z,21.99
2022-10-31T13:13:06.338Z,21.93
2022-10-31T13:15:53.678Z,21.94
2022-10-31T13:18:35.854Z,21.89
2022-10-31T13:21:14.288Z,21.85
2022-10-31T13:23:52.608Z,21.83
2022-10-31T13:26:39.516Z,21.77
2022-10-31T13:29:20.067Z,21.70
2022-10-31T13:31:53.037Z,21.65
2022-10-31T13:34:30.176Z,21.58
2022-10-31T13:37:09.567Z,21.50
2022-10-31T13:40:01.782Z,21.47
2022-10-31T13:42:48.228Z,21.40
2022-10-31T13:45:25.259Z,21.32
2022-10-31T13:48:03.777Z,21.23
2022-10-31T13:50:38.175Z,21.20
2022-10-31T13:53:38.037Z,21.18
2022-10-31T13:56:23.700Z,21.13
2022-10-31T13:59:09.168Z,21.09
2022-10-31T14:01:51.469Z,21.06
2022-10-31T14:04:26.832Z,21.03
2022-10-31T14:07:11.358Z,21.00
2022-10-31T14:09:55.377Z,21.00
2022-10-31T14:12:33.650Z,20.99
2022-10-31T14:15:17.003Z,20.97
2022-10-31T14:17:53.456Z,20.91
2022-10-31T14:20:42.429Z,20.85
2022-10-31T14:23:44.066Z,20.78
2022-10-31T14:26:38.169Z,20.71
2022-10-31T14:29:31.857Z,20.64
2022-10-31T14:32:12.368Z,20.55
2022-10-31T14:34:53.707Z,20.32
2022-10-31T14:37:38.770Z,20.25
2022-10-31T14:40:28.988Z,20.14
2022-10-31T14:43:24.177Z,20.01
2022-10-31T14:46:04.812Z,19.76
2022-10-31T14:48:55.188Z,19.54
2022-10-31T14:51:32.359Z,19.38
2022-10-31T14:54:07.491Z,19.19
2022-10-31T14:56:49.297Z,19.11
2022-10-31T14:59:27.918Z,19.04
2022-10-31T15:02:04.891Z,19.00
2022-10-31T15:04:40.198Z,18.86
2022-10-31T15:07:23.331Z,18.72
2022-10-31T15:10:04.709Z,18.56
2022-10-31T15:12:40.277Z,18.43
2022-10-31T15:15:23.541Z,18.42
2022-10-31T15:18:01.297Z,18.40
2022-10-31T15:20:41.458Z,18.34
2022-10-31T15:23:19.227Z,18.21
2022-10-31T15:25:51.926Z,18.07
2022-10-31T15:28:28.287Z,17.98
2022-10-31T15:31:04.669Z,17.92
2022-10-31T15:33:48.380Z,17.82
2022-10-31T15:36:29.076Z,17.67
2022-10-31T15:39:04.135Z,17.62
2022-10-31T15:41:41.211Z,17.56
2022-10-31T15:44:21.118Z,17.43
2022-10-31T15:47:00.387Z,17.28
2022-10-31T15:49:40.177Z,17.17
2022-10-31T15:52:18.727Z,17.10
2022-10-31T15:54:58.069Z,17.03
2022-10-31T15:57:31.909Z,17.02
2022-10-31T16:00:04.930Z,16.98
2022-10-31T16:02:38.284Z,16.91
2022-10-31T16:05:22.368Z,16.80
2022-10-31T16:07:56.628Z,16.67
2022-10-31T16:10:35.302Z,16.64
2022-10-31T16:13:12.949Z,16.58
2022-10-31T16:16:08.808Z,16.50
2022-10-31T16:18:48.038Z,16.41
2022-10-31T16:21:30.507Z,16.36
2022-10-31T16:24:06.545Z,16.27
2022-10-31T16:26:39.397Z,16.21
2022-10-31T16:29:35.238Z,16.13
2022-10-31T16:32:26.539Z,16.09
2022-10-31T16:35:27.379Z,16.04
2022-10-31T16:38:00.484Z,16.01
2022-10-31T16:40:34.398Z,15.99
2022-10-31T16:43:12.177Z,15.97
2022-10-31T16:45:50.617Z,15.93
2022-10-31T16:48:25.257Z,15.83
2022-10-31T16:50:58.107Z,15.70
2022-10-31T16:53:32.941Z,15.66
2022-10-31T16:56:07.426Z,15.61
2022-10-31T16:58:40.478Z,15.51
2022-10-31T17:01:14.475Z,15.42
2022-10-31T17:03:47.450Z,15.43
2022-10-31T17:06:20.159Z,15.40
2022-10-31T17:09:13.029Z,15.32
2022-10-31T17:11:50.568Z,15.19
2022-10-31T17:14:23.779Z,15.15
2022-10-31T17:16:59.517Z,15.06
2022-10-31T17:19:32.320Z,15.00
2022-10-31T17:22:05.798Z,14.98
2022-10-31T17:24:43.094Z,14.97
2022-10-31T17:27:21.439Z,14.84
2022-10-31T17:29:54.428Z,14.81
2022-10-31T17:32:27.298Z,14.75
2022-10-31T17:35:00.177Z,14.69
2022-10-31T17:37:33.137Z,14.66
2022-10-31T17:40:06.188Z,14.64
2022-10-31T17:42:39.397Z,14.62
2022-10-31T17:45:14.688Z,14.59
2022-10-31T17:47:48.855Z,14.54
2022-10-31T17:50:25.606Z,14.51
2022-10-31T17:53:00.190Z,14.51
2022-10-31T17:55:36.140Z,14.51
2022-10-31T17:58:15.909Z,14.54
2022-10-31T18:00:52.572Z,14.48
2022-10-31T18:03:25.397Z,14.49
2022-10-31T18:06:00.208Z,14.48
2022-10-31T18:08:35.271Z,14.50
2022-10-31T18:11:12.097Z,14.52
2022-10-31T18:13:47.167Z,14.53
2022-10-31T18:16:20.997Z,14.55
2022-10-31T18:18:56.938Z,14.48
2022-10-31T18:21:29.720Z,14.42
2022-10-31T18:24:07.834Z,14.46
2022-10-31T18:26:40.667Z,14.47
2022-10-31T18:29:14.957Z,14.41
2022-10-31T18:31:56.369Z,14.34
2022-10-31T18:34:34.608Z,14.32
2022-10-31T18:37:13.817Z,14.33
2022-10-31T18:39:52.715Z,14.31
2022-10-31T18:42:32.199Z,14.31
2022-10-31T18:45:31.386Z,14.25
2022-10-31T18:48:16.383Z,14.10
2022-10-31T18:54:03.559Z,13.98
2022-10-31T18:56:44.048Z,13.97
2022-10-31T18:59:24.790Z,13.95
2022-10-31T19:02:06.460Z,13.94
2022-10-31T19:04:44.599Z,13.89
2022-10-31T19:07:40.258Z,13.83
2022-10-31T19:10:28.499Z,13.80
2022-10-31T19:13:08.411Z,13.72
2022-10-31T19:15:53.768Z,13.69
2022-10-31T19:18:32.639Z,13.68
2022-10-31T19:21:26.546Z,13.67
2022-10-31T19:24:03.540Z,13.67
2022-10-31T19:26:57.379Z,13.65
2022-10-31T19:29:43.945Z,13.63
2022-10-31T19:32:20.585Z,13.66
2022-10-31T19:34:58.437Z,13.63
2022-10-31T19:37:33.987Z,13.59
2022-10-31T19:40:14.317Z,13.54
2022-10-31T19:42:57.223Z,13.55
2022-10-31T19:45:38.538Z,13.52
2022-10-31T19:48:13.728Z,13.53
2022-10-31T19:50:51.201Z,13.48
2022-10-31T19:53:30.597Z,13.47
2022-10-31T19:56:14.349Z,13.48
2022-10-31T19:58:55.117Z,13.46
2022-10-31T20:01:40.130Z,13.40
2022-10-31T20:04:23.347Z,13.38
2022-10-31T20:07:24.308Z,13.32
2022-10-31T20:10:01.991Z,13.25
2022-10-31T20:12:37.947Z,13.18
2022-10-31T20:15:19.757Z,13.12
2022-10-31T20:17:56.247Z,13.08
2022-10-31T20:20:29.208Z,13.02
2022-10-31T20:23:02.404Z,12.99
2022-10-31T20:25:38.959Z,12.99
2022-10-31T20:28:11.986Z,12.89
2022-10-31T20:30:44.907Z,12.90
2022-10-31T20:33:18.578Z,12.87
2022-10-31T20:35:52.037Z,12.81
2022-10-31T20:38:26.768Z,12.78
2022-10-31T20:41:04.338Z,12.78
2022-10-31T20:43:38.348Z,12.79
2022-10-31T20:46:12.898Z,12.80
2022-10-31T20:48:46.367Z,12.78
2022-10-31T20:51:22.039Z,12.76
2022-10-31T20:53:55.931Z,12.74
2022-10-31T20:56:29.976Z,12.75
2022-10-31T20:59:02.536Z,12.78
2022-10-31T21:01:38.246Z,12.73
2022-10-31T21:04:12.519Z,12.57
2022-10-31T21:06:49.642Z,12.42
2022-10-31T21:09:23.327Z,12.36
2022-10-31T21:11:56.180Z,12.37
2022-10-31T21:14:30.938Z,12.36
2022-10-31T21:17:04.473Z,12.38
2022-10-31T21:19:42.759Z,12.39
2022-10-31T21:22:16.427Z,12.33
2022-10-31T21:24:49.197Z,12.33
2022-10-31T21:27:24.798Z,12.33
2022-10-31T21:29:59.676Z,12.30
2022-10-31T21:32:32.598Z,12.28
2022-10-31T21:35:05.547Z,12.27
2022-10-31T21:37:38.289Z,12.28
2022-10-31T21:40:13.037Z,12.26
2022-10-31T21:42:45.717Z,12.21
2022-10-31T21:45:18.279Z,12.19
2022-10-31T21:47:51.487Z,12.16
2022-10-31T21:50:25.008Z,12.12
2022-10-31T21:52:56.677Z,12.03
2022-10-31T21:55:29.459Z,11.80
2022-10-31T21:58:02.865Z,11.83
2022-10-31T22:00:35.957Z,11.83
2022-10-31T22:03:10.133Z,11.83
2022-10-31T22:05:42.790Z,11.81
2022-10-31T22:08:15.660Z,11.78
2022-10-31T22:10:48.189Z,11.78
2022-10-31T22:13:19.948Z,11.77
2022-10-31T22:15:52.558Z,11.74
2022-10-31T22:18:25.438Z,11.76
2022-10-31T22:21:04.647Z,11.76
2022-10-31T22:23:38.080Z,11.75
2022-10-31T22:26:09.248Z,11.72
2022-10-31T22:28:42.298Z,11.63
2022-10-31T22:31:16.540Z,11.63
2022-10-31T22:33:49.761Z,11.58
2022-10-31T22:36:23.845Z,11.53
2022-10-31T22:38:56.387Z,11.47
2022-10-31T22:41:34.098Z,11.41
2022-10-31T22:44:08.158Z,11.35
2022-10-31T22:46:41.947Z,11.31
2022-10-31T22:49:17.077Z,11.28
2022-10-31T22:51:53.887Z,11.24
2022-10-31T22:54:26.558Z,11.20
2022-10-31T22:56:59.227Z,11.15
2022-10-31T22:59:32.206Z,11.12
2022-10-31T23:02:08.393Z,11.10
2022-10-31T23:04:42.757Z,11.11
2022-10-31T23:07:15.760Z,11.11
2022-10-31T23:09:48.962Z,11.10
2022-10-31T23:12:38.847Z,11.09
2022-10-31T23:15:12.701Z,11.07
2022-10-31T23:17:46.967Z,11.02
2022-10-31T23:20:19.680Z,11.00
2022-10-31T23:22:52.329Z,10.97
2022-10-31T23:25:42.102Z,10.88
2022-10-31T23:28:16.147Z,10.80
2022-10-31T23:30:50.568Z,10.76
2022-10-31T23:33:29.110Z,10.66
2022-10-31T23:36:04.408Z,10.67
2022-10-31T23:38:37.670Z,10.62
2022-10-31T23:41:10.399Z,10.60
2022-10-31T23:43:43.095Z,10.54
2022-10-31T23:46:15.746Z,10.46
2022-10-31T23:48:49.917Z,10.38
2022-10-31T23:51:22.728Z,10.32
2022-10-31T23:53:55.677Z,10.31
2022-10-31T23:56:28.167Z,10.31
2022-10-31T23:59:00.937Z,10.31
